createdAt,value
2022-12-20T00:02:19.744Z,99282.00
2022-12-20T00:04:51.120Z,99273.00
2022-12-20T00:07:21.986Z,99275.00
2022-12-20T00:09:52.848Z,99272.00
2022-12-20T00:12:24.024Z,99274.00
2022-12-20T00:14:55.112Z,99272.00
2022-12-20T00:17:26.006Z,99255.00
2022-12-20T00:19:56.963Z,99260.00
2022-12-20T00:22:27.873Z,99262.00
2022-12-20T00:24:58.786Z,99252.00
2022-12-20T00:27:29.905Z,99240.00
2022-12-20T00:30:00.795Z,99237.00
2022-12-20T00:32:31.710Z,99228.00
2022-12-20T00:35:02.589Z,99223.00
2022-12-20T00:37:33.641Z,99226.00
2022-12-20T00:40:06.512Z,99246.00
2022-12-20T00:42:37.353Z,99245.00
2022-12-20T00:45:09.063Z,99244.00
2022-12-20T00:47:39.929Z,99232.00
2022-12-20T00:50:11.028Z,99237.00
2022-12-20T00:52:41.938Z,99250.00
2022-12-20T00:55:12.999Z,99242.00
2022-12-20T00:57:43.880Z,99251.00
2022-12-20T01:00:15.437Z,99246.00
2022-12-20T01:02:46.430Z,99227.00
2022-12-20T01:05:17.635Z,99241.00
2022-12-20T01:07:48.495Z,99237.00
2022-12-20T01:10:19.395Z,99248.00
2022-12-20T01:12:50.343Z,99252.00
2022-12-20T01:15:21.536Z,99257.00
2022-12-20T01:17:52.430Z,99249.00
2022-12-20T01:20:23.325Z,99258.00
2022-12-20T01:22:54.226Z,99261.00
2022-12-20T01:25:25.129Z,99280.00
2022-12-20T01:27:56.514Z,99266.00
2022-12-20T01:30:27.481Z,99259.00
2022-12-20T01:32:58.381Z,99255.00
2022-12-20T01:35:29.302Z,99246.00
2022-12-20T01:38:00.178Z,99243.00
2022-12-20T01:40:31.142Z,99247.00
2022-12-20T01:43:01.984Z,99239.00
2022-12-20T01:45:32.960Z,99248.00
2022-12-20T01:48:04.092Z,99244.00
2022-12-20T01:50:35.135Z,99239.00
2022-12-20T01:53:06.282Z,99234.00
2022-12-20T01:55:37.776Z,99230.00
2022-12-20T01:58:12.675Z,99238.00
2022-12-20T02:00:43.746Z,99233.00
2022-12-20T02:03:15.576Z,99252.00
2022-12-20T02:05:47.135Z,99241.00
2022-12-20T02:08:20.511Z,99197.00
2022-12-20T02:11:29.457Z,99219.00
2022-12-20T02:14:22.686Z,99217.00
2022-12-20T02:17:27.015Z,99222.00
2022-12-20T02:20:51.024Z,99205.00
2022-12-20T02:23:49.289Z,99205.00
2022-12-20T02:26:37.682Z,99194.00
2022-12-20T02:30:02.171Z,99195.00
2022-12-20T02:33:07.688Z,99200.00
2022-12-20T02:35:40.043Z,99186.00
2022-12-20T02:38:34.256Z,99192.00
2022-12-20T02:41:32.129Z,99206.00
2022-12-20T02:44:33.237Z,99196.00
2022-12-20T02:47:10.386Z,99180.00
2022-12-20T02:49:45.781Z,99182.00
2022-12-20T02:52:18.701Z,99181.00
2022-12-20T02:54:49.702Z,99179.00
2022-12-20T02:57:26.413Z,99177.00
2022-12-20T03:00:11.796Z,99173.00
2022-12-20T03:03:03.627Z,99167.00
2022-12-20T03:05:46.144Z,99154.00
2022-12-20T03:08:17.962Z,99153.00
2022-12-20T03:10:50.737Z,99154.00
2022-12-20T03:13:24.130Z,99158.00
2022-12-20T03:15:55.040Z,99156.00
2022-12-20T03:18:25.967Z,99147.00
2022-12-20T03:20:56.942Z,99155.00
2022-12-20T03:23:27.898Z,99155.00
2022-12-20T03:25:58.840Z,99145.00
2022-12-20T03:28:29.683Z,99147.00
2022-12-20T03:31:00.717Z,99147.00
2022-12-20T03:33:31.648Z,99134.00
2022-12-20T03:36:02.593Z,99130.00
2022-12-20T03:38:33.507Z,99130.00
2022-12-20T03:41:04.695Z,99140.00
2022-12-20T03:43:35.606Z,99151.00
2022-12-20T03:46:06.687Z,99138.00
2022-12-20T03:48:37.560Z,99136.00
2022-12-20T03:51:08.587Z,99139.00
2022-12-20T03:53:39.532Z,99135.00
2022-12-20T03:56:10.452Z,99139.00
2022-12-20T03:58:41.391Z,99138.00
2022-12-20T04:01:41.736Z,99137.00
2022-12-20T04:04:15.093Z,99133.00
2022-12-20T04:06:46.161Z,99124.00
2022-12-20T04:09:17.151Z,99122.00
2022-12-20T04:11:48.398Z,99129.00
2022-12-20T04:14:19.257Z,99132.00
2022-12-20T04:16:50.159Z,99125.00
2022-12-20T04:19:21.048Z,99105.00
2022-12-20T04:21:52.153Z,99101.00
2022-12-20T04:24:23.411Z,99101.00
2022-12-20T04:26:54.354Z,99112.00
2022-12-20T04:29:25.269Z,99107.00
2022-12-20T04:31:56.287Z,99102.00
2022-12-20T04:34:27.401Z,99109.00
2022-12-20T04:36:58.266Z,99126.00
2022-12-20T04:39:29.236Z,99134.00
2022-12-20T04:42:00.569Z,99115.00
2022-12-20T04:44:31.532Z,99124.00
2022-12-20T04:47:03.549Z,99094.00
2022-12-20T04:49:34.622Z,99098.00
2022-12-20T04:52:24.431Z,99088.00
2022-12-20T04:54:55.409Z,99096.00
2022-12-20T04:57:26.296Z,99082.00
2022-12-20T04:59:57.234Z,99096.00
2022-12-20T05:02:28.203Z,99085.00
2022-12-20T05:04:59.245Z,99081.00
2022-12-20T05:07:30.112Z,99090.00
2022-12-20T05:10:01.022Z,99078.00
2022-12-20T05:12:31.958Z,99072.00
2022-12-20T05:15:02.954Z,99067.00
2022-12-20T05:17:36.857Z,99066.00
2022-12-20T05:20:08.733Z,99071.00
2022-12-20T05:22:57.840Z,99064.00
2022-12-20T05:26:09.434Z,99064.00
2022-12-20T05:28:40.618Z,99059.00
2022-12-20T05:31:11.677Z,99058.00
2022-12-20T05:33:42.592Z,99044.00
2022-12-20T05:36:13.746Z,99050.00
2022-12-20T05:38:44.664Z,99047.00
2022-12-20T05:41:15.963Z,99061.00
2022-12-20T05:43:47.176Z,99061.00
2022-12-20T05:46:18.159Z,99054.00
2022-12-20T05:48:49.128Z,99055.00
2022-12-20T05:51:20.292Z,99034.00
2022-12-20T05:53:53.631Z,99033.00
2022-12-20T05:56:24.566Z,99029.00
2022-12-20T05:58:55.451Z,99041.00
2022-12-20T06:01:26.455Z,99017.00
2022-12-20T06:03:57.368Z,99023.00
2022-12-20T06:06:28.462Z,99018.00
2022-12-20T06:08:59.369Z,99016.00
2022-12-20T06:11:30.755Z,99014.00
2022-12-20T06:14:01.728Z,99022.00
2022-12-20T06:16:32.700Z,99031.00
2022-12-20T06:19:03.659Z,99043.00
2022-12-20T06:21:34.684Z,99047.00
2022-12-20T06:24:06.748Z,99042.00
2022-12-20T06:26:37.883Z,99040.00
2022-12-20T06:29:10.488Z,99032.00
2022-12-20T06:31:41.854Z,99026.00
2022-12-20T06:34:13.359Z,99028.00
2022-12-20T06:36:44.633Z,99042.00
2022-12-20T06:39:15.549Z,99053.00
2022-12-20T06:41:46.472Z,99052.00
2022-12-20T06:44:17.447Z,99055.00
2022-12-20T06:46:48.365Z,99056.00
2022-12-20T06:49:19.309Z,99050.00
2022-12-20T06:51:50.219Z,99049.00
2022-12-20T06:54:21.460Z,99073.00
2022-12-20T06:56:52.389Z,99050.00
2022-12-20T06:59:23.295Z,99053.00
2022-12-20T07:01:54.416Z,99037.00
2022-12-20T07:04:25.635Z,99042.00
2022-12-20T07:06:59.553Z,99033.00
2022-12-20T07:09:30.654Z,99036.00
2022-12-20T07:12:01.545Z,99041.00
2022-12-20T07:14:32.464Z,99037.00
2022-12-20T07:17:05.905Z,99035.00
2022-12-20T07:19:37.302Z,99030.00
2022-12-20T07:22:08.228Z,99040.00
2022-12-20T07:24:39.864Z,99039.00
2022-12-20T07:27:11.869Z,99034.00
2022-12-20T07:29:42.762Z,99044.00
2022-12-20T07:32:14.656Z,99040.00
2022-12-20T07:34:45.623Z,99037.00
2022-12-20T07:37:16.569Z,99032.00
2022-12-20T07:39:47.472Z,99035.00
2022-12-20T07:42:18.876Z,99036.00
2022-12-20T07:44:49.851Z,99038.00
2022-12-20T07:47:20.996Z,99035.00
2022-12-20T07:49:51.975Z,99017.00
2022-12-20T07:52:25.216Z,99017.00
2022-12-20T07:55:02.159Z,99022.00
2022-12-20T07:57:56.168Z,99016.00
2022-12-20T08:00:28.664Z,99029.00
2022-12-20T08:03:09.094Z,99028.00
2022-12-20T08:05:45.505Z,99031.00
2022-12-20T08:08:17.197Z,99033.00
2022-12-20T08:10:49.173Z,99042.00
2022-12-20T08:13:20.136Z,99021.00
2022-12-20T08:15:51.346Z,99030.00
2022-12-20T08:18:22.225Z,99021.00
2022-12-20T08:20:53.128Z,99025.00
2022-12-20T08:23:24.067Z,99028.00
2022-12-20T08:25:55.033Z,99019.00
2022-12-20T08:28:25.983Z,99008.00
2022-12-20T08:31:09.070Z,99013.00
2022-12-20T08:33:40.740Z,99009.00
2022-12-20T08:36:13.576Z,98994.00
2022-12-20T08:38:44.448Z,98986.00
2022-12-20T08:41:16.394Z,98994.00
2022-12-20T08:43:47.313Z,98985.00
2022-12-20T08:46:18.242Z,98989.00
2022-12-20T08:48:49.206Z,98980.00
2022-12-20T08:51:20.189Z,98993.00
2022-12-20T08:53:52.313Z,98982.00
2022-12-20T08:56:23.885Z,98977.00
2022-12-20T08:58:54.776Z,98976.00
2022-12-20T09:01:27.150Z,98974.00
2022-12-20T09:03:58.195Z,98976.00
2022-12-20T09:06:29.609Z,98972.00
2022-12-20T09:09:00.658Z,98983.00
2022-12-20T09:11:31.733Z,98976.00
2022-12-20T09:14:02.794Z,98982.00
2022-12-20T09:16:34.263Z,98978.00
2022-12-20T09:19:06.648Z,98971.00
2022-12-20T09:21:37.794Z,98969.00
2022-12-20T09:24:10.147Z,98960.00
2022-12-20T09:26:41.055Z,98962.00
2022-12-20T09:29:12.924Z,98973.00
2022-12-20T09:31:43.884Z,98971.00
2022-12-20T09:34:15.301Z,98975.00
2022-12-20T09:36:46.305Z,98963.00
2022-12-20T09:39:17.138Z,98971.00
2022-12-20T09:41:48.101Z,98970.00
2022-12-20T09:44:34.495Z,98963.00
2022-12-20T09:47:12.311Z,98950.00
2022-12-20T09:49:47.966Z,98942.00
2022-12-20T09:52:46.735Z,98949.00
2022-12-20T09:55:51.174Z,98944.00
2022-12-20T09:58:52.628Z,98950.00
2022-12-20T10:01:30.061Z,98937.00
2022-12-20T10:04:31.179Z,98929.00
2022-12-20T10:07:39.145Z,98924.00
2022-12-20T10:10:54.649Z,98949.00
2022-12-20T10:14:08.060Z,98905.00
2022-12-20T10:16:57.176Z,98904.00
2022-12-20T10:19:48.836Z,98916.00
2022-12-20T10:22:35.979Z,98921.00
2022-12-20T10:25:24.328Z,98910.00
2022-12-20T10:27:59.939Z,98899.00
2022-12-20T10:30:33.364Z,98914.00
2022-12-20T10:33:04.254Z,98904.00
2022-12-20T10:35:40.700Z,98906.00
2022-12-20T10:38:14.158Z,98901.00
2022-12-20T10:43:48.058Z,98912.00
2022-12-20T10:46:19.839Z,98893.00
2022-12-20T10:48:51.677Z,98887.00
2022-12-20T10:51:22.867Z,98896.00
2022-12-20T10:54:01.655Z,98898.00
2022-12-20T10:56:36.473Z,98891.00
2022-12-20T10:59:23.985Z,98881.00
2022-12-20T11:01:55.020Z,98878.00
2022-12-20T11:04:35.494Z,98897.00
2022-12-20T11:07:26.335Z,98865.00
2022-12-20T11:10:04.717Z,98872.00
2022-12-20T11:12:35.832Z,98861.00
2022-12-20T11:15:21.142Z,98864.00
2022-12-20T11:18:14.931Z,98860.00
2022-12-20T11:21:24.310Z,98861.00
2022-12-20T11:24:35.669Z,98854.00
2022-12-20T11:27:32.575Z,98850.00
2022-12-20T11:30:17.577Z,98844.00
2022-12-20T11:33:26.775Z,98848.00
2022-12-20T11:36:23.112Z,98852.00
2022-12-20T11:39:11.034Z,98844.00
2022-12-20T11:42:02.451Z,98836.00
2022-12-20T11:45:03.506Z,98839.00
2022-12-20T11:48:06.933Z,98822.00
2022-12-20T11:51:04.422Z,98810.00
2022-12-20T11:53:42.447Z,98807.00
2022-12-20T11:56:43.556Z,98791.00
2022-12-20T11:59:43.006Z,98808.00
2022-12-20T12:02:25.074Z,98783.00
2022-12-20T12:05:08.031Z,98784.00
2022-12-20T12:07:41.486Z,98798.00
2022-12-20T12:10:36.124Z,98811.00
2022-12-20T12:13:17.735Z,98829.00
2022-12-20T12:15:58.698Z,98816.00
2022-12-20T12:18:33.208Z,98805.00
2022-12-20T12:21:24.769Z,98801.00
2022-12-20T12:24:23.104Z,98801.00
2022-12-20T12:26:54.429Z,98800.00
2022-12-20T12:29:29.035Z,98775.00
2022-12-20T12:32:32.438Z,98779.00
2022-12-20T12:35:11.035Z,98779.00
2022-12-20T12:38:26.198Z,98776.00
2022-12-20T12:41:40.176Z,98767.00
2022-12-20T12:44:56.686Z,98778.00
2022-12-20T12:47:45.996Z,98777.00
2022-12-20T12:50:26.665Z,98781.00
2022-12-20T12:53:06.356Z,98779.00
2022-12-20T12:55:47.390Z,98768.00
2022-12-20T12:58:24.302Z,98743.00
2022-12-20T13:00:56.448Z,98734.00
2022-12-20T13:03:53.620Z,98732.00
2022-12-20T13:06:28.291Z,98721.00
2022-12-20T13:08:59.141Z,98724.00
2022-12-20T13:11:46.371Z,98728.00
2022-12-20T13:14:17.964Z,98722.00
2022-12-20T13:19:54.195Z,98713.00
2022-12-20T13:22:26.677Z,98718.00
2022-12-20T13:25:05.879Z,98723.00
2022-12-20T13:27:39.456Z,98725.00
2022-12-20T13:30:10.469Z,98725.00
2022-12-20T13:32:47.538Z,98737.00
2022-12-20T13:35:28.048Z,98733.00
2022-12-20T13:38:12.746Z,98734.00
2022-12-20T13:41:00.461Z,98729.00
2022-12-20T13:43:41.624Z,98726.00
2022-12-20T13:46:32.540Z,98729.00
2022-12-20T13:49:05.414Z,98730.00
2022-12-20T13:51:36.364Z,98740.00
2022-12-20T13:54:17.428Z,98711.00
2022-12-20T13:56:51.956Z,98702.00
2022-12-20T13:59:33.427Z,98698.00
2022-12-20T14:02:20.522Z,98707.00
2022-12-20T14:05:03.960Z,98700.00
2022-12-20T14:07:36.339Z,98695.00
2022-12-20T14:10:21.070Z,98691.00
2022-12-20T14:12:53.391Z,98692.00
2022-12-20T14:15:34.962Z,98698.00
2022-12-20T14:18:20.826Z,98693.00
2022-12-20T14:20:55.736Z,98691.00
2022-12-20T14:23:40.212Z,98689.00
2022-12-20T14:26:15.859Z,98683.00
2022-12-20T14:28:52.600Z,98675.00
2022-12-20T14:31:50.444Z,98675.00
2022-12-20T14:34:34.219Z,98670.00
2022-12-20T14:37:35.436Z,98670.00
2022-12-20T14:40:09.508Z,98675.00
2022-12-20T14:42:40.806Z,98672.00
2022-12-20T14:45:14.703Z,98675.00
2022-12-20T14:47:55.343Z,98673.00
2022-12-20T14:50:53.707Z,98677.00
2022-12-20T14:53:30.173Z,98686.00
2022-12-20T14:56:01.525Z,98685.00
2022-12-20T14:58:37.253Z,98705.00
2022-12-20T15:01:22.685Z,98672.00
2022-12-20T15:04:06.851Z,98657.00
2022-12-20T15:06:41.832Z,98656.00
2022-12-20T15:09:12.799Z,98644.00
2022-12-20T15:11:46.220Z,98653.00
2022-12-20T15:14:39.349Z,98649.00
2022-12-20T15:17:14.678Z,98654.00
2022-12-20T15:19:45.500Z,98641.00
2022-12-20T15:22:18.691Z,98641.00
2022-12-20T15:24:49.537Z,98637.00
2022-12-20T15:27:20.453Z,98641.00
2022-12-20T15:29:51.367Z,98645.00
2022-12-20T15:32:29.876Z,98642.00
2022-12-20T15:35:00.906Z,98650.00
2022-12-20T15:37:31.807Z,98649.00
2022-12-20T15:40:02.686Z,98645.00
2022-12-20T15:42:33.862Z,98650.00
2022-12-20T15:45:05.434Z,98657.00
2022-12-20T15:47:36.339Z,98656.00
2022-12-20T15:50:08.534Z,98640.00
2022-12-20T15:52:39.433Z,98651.00
2022-12-20T15:55:11.927Z,98642.00
2022-12-20T15:57:42.911Z,98649.00
2022-12-20T16:00:14.613Z,98641.00
2022-12-20T16:02:46.424Z,98643.00
2022-12-20T16:05:17.432Z,98642.00
2022-12-20T16:07:48.294Z,98645.00
2022-12-20T16:10:19.135Z,98649.00
2022-12-20T16:12:50.058Z,98644.00
2022-12-20T16:15:22.869Z,98647.00
2022-12-20T16:17:53.877Z,98651.00
2022-12-20T16:20:24.854Z,98646.00
2022-12-20T16:22:55.776Z,98644.00
2022-12-20T16:25:34.669Z,98657.00
2022-12-20T16:28:05.926Z,98652.00
2022-12-20T16:30:37.080Z,98648.00
2022-12-20T16:33:21.605Z,98654.00
2022-12-20T16:35:52.486Z,98659.00
2022-12-20T16:38:23.345Z,98661.00
2022-12-20T16:40:54.309Z,98656.00
2022-12-20T16:43:25.753Z,98656.00
2022-12-20T16:45:56.599Z,98646.00
2022-12-20T16:48:29.774Z,98656.00
2022-12-20T16:51:00.630Z,98649.00
2022-12-20T16:53:48.190Z,98644.00
2022-12-20T16:56:23.558Z,98652.00
2022-12-20T16:59:18.625Z,98642.00
2022-12-20T17:01:47.045Z,98654.00
2022-12-20T17:04:19.190Z,98653.00
2022-12-20T17:06:50.815Z,98650.00
2022-12-20T17:12:16.432Z,98640.00
2022-12-20T17:14:47.454Z,98648.00
2022-12-20T17:17:18.417Z,98648.00
2022-12-20T17:19:49.251Z,98646.00
2022-12-20T17:25:30.377Z,98642.00
2022-12-20T17:28:01.307Z,98630.00
2022-12-20T17:30:32.240Z,98640.00
2022-12-20T17:33:03.300Z,98636.00
2022-12-20T17:35:34.284Z,98634.00
2022-12-20T17:38:07.577Z,98622.00
2022-12-20T17:40:38.414Z,98628.00
2022-12-20T17:43:12.184Z,98628.00
2022-12-20T17:45:43.215Z,98626.00
2022-12-20T17:48:15.034Z,98613.00
2022-12-20T17:50:45.873Z,98616.00
2022-12-20T17:53:16.757Z,98608.00
2022-12-20T17:55:47.608Z,98616.00
2022-12-20T17:58:18.458Z,98613.00
2022-12-20T18:00:50.868Z,98593.00
2022-12-20T18:04:01.655Z,98574.00
2022-12-20T18:06:12.848Z,98571.00
2022-12-20T18:08:44.009Z,98584.00
2022-12-20T18:11:15.679Z,98581.00
2022-12-20T18:13:49.165Z,98580.00
2022-12-20T18:16:23.718Z,98571.00
2022-12-20T18:18:56.328Z,98577.00
2022-12-20T18:21:27.778Z,98576.00
2022-12-20T18:23:58.747Z,98580.00
2022-12-20T18:26:32.342Z,98578.00
2022-12-20T18:29:03.329Z,98589.00
2022-12-20T18:31:35.423Z,98601.00
2022-12-20T18:34:06.401Z,98601.00
2022-12-20T18:36:38.260Z,98603.00
2022-12-20T18:39:12.763Z,98603.00
2022-12-20T18:42:04.078Z,98602.00
2022-12-20T18:44:36.281Z,98592.00
2022-12-20T18:47:09.731Z,98589.00
2022-12-20T18:49:40.702Z,98579.00
2022-12-20T18:52:11.630Z,98577.00
2022-12-20T18:54:42.527Z,98585.00
2022-12-20T18:57:13.395Z,98590.00
2022-12-20T18:59:44.306Z,98584.00
2022-12-20T19:02:15.382Z,98588.00
2022-12-20T19:04:46.618Z,98585.00
2022-12-20T19:07:17.482Z,98585.00
2022-12-20T19:09:49.473Z,98592.00
2022-12-20T19:12:20.330Z,98597.00
2022-12-20T19:14:54.288Z,98586.00
2022-12-20T19:17:25.334Z,98585.00
2022-12-20T19:19:56.211Z,98588.00
2022-12-20T19:22:27.107Z,98584.00
2022-12-20T19:24:57.990Z,98580.00
2022-12-20T19:27:28.859Z,98585.00
2022-12-20T19:30:00.186Z,98573.00
2022-12-20T19:32:31.452Z,98570.00
2022-12-20T19:35:23.380Z,98572.00
2022-12-20T19:37:53.175Z,98566.00
2022-12-20T19:40:24.084Z,98563.00
2022-12-20T19:42:54.957Z,98570.00
2022-12-20T19:45:25.886Z,98580.00
2022-12-20T19:47:56.855Z,98558.00
2022-12-20T19:50:27.720Z,98550.00
2022-12-20T19:52:58.680Z,98555.00
2022-12-20T19:55:29.672Z,98545.00
2022-12-20T19:58:00.539Z,98546.00
2022-12-20T20:00:32.329Z,98537.00
2022-12-20T20:03:03.323Z,98541.00
2022-12-20T20:05:35.079Z,98543.00
2022-12-20T20:08:06.002Z,98541.00
2022-12-20T20:10:37.305Z,98542.00
2022-12-20T20:13:08.637Z,98541.00
2022-12-20T20:15:39.522Z,98543.00
2022-12-20T20:18:10.593Z,98550.00
2022-12-20T20:20:41.505Z,98550.00
2022-12-20T20:23:12.396Z,98546.00
2022-12-20T20:26:00.013Z,98559.00
2022-12-20T20:28:33.971Z,98581.00
2022-12-20T20:31:11.208Z,98576.00
2022-12-20T20:33:43.647Z,98580.00
2022-12-20T20:36:21.828Z,98590.00
2022-12-20T20:38:52.974Z,98597.00
2022-12-20T20:41:24.784Z,98594.00
2022-12-20T20:43:55.688Z,98603.00
2022-12-20T20:46:26.611Z,98625.00
2022-12-20T20:48:58.390Z,98620.00
2022-12-20T20:51:29.260Z,98623.00
2022-12-20T20:54:00.233Z,98608.00
2022-12-20T20:56:31.494Z,98621.00
2022-12-20T20:59:06.891Z,98627.00
2022-12-20T21:01:39.156Z,98651.00
2022-12-20T21:04:11.221Z,98653.00
2022-12-20T21:06:42.473Z,98622.00
2022-12-20T21:09:13.805Z,98629.00
2022-12-20T21:11:44.947Z,98626.00
2022-12-20T21:14:16.359Z,98626.00
2022-12-20T21:16:47.423Z,98618.00
2022-12-20T21:19:18.437Z,98623.00
2022-12-20T21:21:49.428Z,98661.00
2022-12-20T21:24:22.225Z,98627.00
2022-12-20T21:26:55.219Z,98642.00
2022-12-20T21:29:26.053Z,98633.00
2022-12-20T21:31:56.994Z,98636.00
2022-12-20T21:34:27.942Z,98621.00
2022-12-20T21:36:58.840Z,98609.00
2022-12-20T21:39:29.687Z,98614.00
2022-12-20T21:42:02.233Z,98612.00
2022-12-20T21:44:33.401Z,98627.00
2022-12-20T21:47:04.411Z,98603.00
2022-12-20T21:49:35.327Z,98597.00
2022-12-20T21:52:06.652Z,98588.00
2022-12-20T21:54:37.490Z,98598.00
2022-12-20T21:57:09.188Z,98593.00
2022-12-20T21:59:40.072Z,98599.00
2022-12-20T22:02:12.502Z,98591.00
2022-12-20T22:04:43.518Z,98578.00
2022-12-20T22:07:14.499Z,98587.00
2022-12-20T22:09:45.356Z,98590.00
2022-12-20T22:12:16.225Z,98595.00
2022-12-20T22:14:47.239Z,98602.00
2022-12-20T22:17:18.175Z,98598.00
2022-12-20T22:19:50.494Z,98608.00
2022-12-20T22:22:22.073Z,98617.00
2022-12-20T22:24:53.121Z,98608.00
2022-12-20T22:27:23.981Z,98609.00
2022-12-20T22:29:54.832Z,98618.00
2022-12-20T22:32:25.805Z,98610.00
2022-12-20T22:34:56.681Z,98620.00
2022-12-20T22:37:28.088Z,98613.00
2022-12-20T22:39:58.963Z,98611.00
2022-12-20T22:42:29.864Z,98612.00
2022-12-20T22:45:00.771Z,98615.00
2022-12-20T22:47:31.615Z,98609.00
2022-12-20T22:50:03.747Z,98618.00
2022-12-20T22:52:35.331Z,98612.00
2022-12-20T22:55:06.747Z,98612.00
2022-12-20T22:57:37.861Z,98598.00
2022-12-20T23:00:13.162Z,98600.00
2022-12-20T23:02:47.195Z,98604.00
2022-12-20T23:05:18.492Z,98608.00
2022-12-20T23:07:49.377Z,98601.00
2022-12-20T23:10:38.679Z,98602.00
2022-12-20T23:13:40.973Z,98588.00
2022-12-20T23:16:13.089Z,98608.00
2022-12-20T23:18:45.543Z,98585.00
2022-12-20T23:21:34.856Z,98592.00
2022-12-20T23:24:06.107Z,98583.00
2022-12-20T23:26:38.629Z,98578.00
2022-12-20T23:29:10.656Z,98578.00
2022-12-20T23:31:41.696Z,98577.00
2022-12-20T23:34:12.681Z,98566.00
2022-12-20T23:36:43.607Z,98557.00
2022-12-20T23:39:14.642Z,98567.00
2022-12-20T23:41:46.882Z,98595.00
2022-12-20T23:44:17.768Z,98577.00
2022-12-20T23:46:48.765Z,98579.00
2022-12-20T23:49:19.603Z,98576.00
2022-12-20T23:51:50.550Z,98575.00
2022-12-20T23:54:21.632Z,98572.00
2022-12-20T23:56:55.605Z,98570.00
2022-12-20T23:59:29.381Z,98570.00
